createdAt,value
2022-09-02T00:01:38.113Z,99.90
2022-09-02T00:04:06.624Z,99.90
2022-09-02T00:06:32.498Z,99.90
2022-09-02T00:08:56.875Z,99.90
2022-09-02T00:11:27.466Z,99.90
2022-09-02T00:13:53.172Z,99.90
2022-09-02T00:16:17.510Z,99.90
2022-09-02T00:18:45.756Z,99.90
2022-09-02T00:21:13.626Z,99.90
2022-09-02T00:23:39.143Z,99.90
2022-09-02T00:26:02.870Z,99.90
2022-09-02T00:28:26.676Z,99.90
2022-09-02T00:30:50.346Z,99.90
2022-09-02T00:33:16.105Z,99.90
2022-09-02T00:35:42.659Z,99.90
2022-09-02T00:38:07.086Z,99.90
2022-09-02T00:40:31.426Z,99.90
2022-09-02T00:42:56.259Z,99.90
2022-09-02T00:45:21.585Z,99.90
2022-09-02T00:47:46.139Z,99.90
2022-09-02T00:50:15.244Z,99.90
2022-09-02T00:52:45.155Z,99.90
2022-09-02T00:55:16.744Z,99.90
2022-09-02T00:57:45.199Z,99.90
2022-09-02T01:00:16.650Z,99.90
2022-09-02T01:02:43.187Z,99.90
2022-09-02T01:05:10.880Z,99.90
2022-09-02T01:07:40.043Z,99.90
2022-09-02T01:10:06.572Z,99.90
2022-09-02T01:12:32.455Z,99.90
2022-09-02T01:14:56.467Z,99.90
2022-09-02T01:17:21.149Z,99.90
2022-09-02T01:19:50.267Z,99.90
2022-09-02T01:22:23.594Z,99.90
2022-09-02T01:24:47.323Z,99.90
2022-09-02T01:27:11.259Z,99.90
2022-09-02T01:29:35.003Z,99.90
2022-09-02T01:31:59.923Z,99.90
2022-09-02T01:34:24.730Z,99.90
2022-09-02T01:36:49.211Z,99.90
2022-09-02T01:39:15.416Z,99.90
2022-09-02T01:41:40.048Z,99.90
2022-09-02T01:44:04.997Z,99.90
2022-09-02T01:46:28.848Z,99.90
2022-09-02T01:48:52.882Z,99.90
2022-09-02T01:51:19.459Z,99.90
2022-09-02T01:53:43.431Z,99.90
2022-09-02T01:56:08.672Z,99.90
2022-09-02T01:58:32.329Z,99.90
2022-09-02T02:00:56.139Z,99.90
2022-09-02T02:03:20.516Z,99.90
2022-09-02T02:05:45.017Z,99.90
2022-09-02T02:08:12.312Z,99.90
2022-09-02T02:10:36.051Z,99.90
2022-09-02T02:13:02.243Z,99.90
2022-09-02T02:17:52.282Z,99.90
2022-09-02T02:20:21.708Z,99.90
2022-09-02T02:22:45.959Z,99.90
2022-09-02T02:25:11.134Z,99.90
2022-09-02T02:27:35.315Z,99.90
2022-09-02T02:30:06.715Z,99.90
2022-09-02T02:32:32.650Z,99.90
2022-09-02T02:34:57.746Z,99.90
2022-09-02T02:37:25.549Z,99.90
2022-09-02T02:39:49.940Z,99.90
2022-09-02T02:42:13.851Z,99.90
2022-09-02T02:44:39.785Z,99.90
2022-09-02T02:47:05.095Z,99.90
2022-09-02T02:49:29.523Z,99.90
2022-09-02T02:51:53.892Z,99.90
2022-09-02T02:54:18.583Z,99.90
2022-09-02T02:56:42.994Z,99.90
2022-09-02T02:59:06.916Z,99.90
2022-09-02T03:01:32.737Z,99.90
2022-09-02T03:03:58.038Z,99.90
2022-09-02T03:06:23.876Z,99.90
2022-09-02T03:08:53.539Z,99.90
2022-09-02T03:11:18.155Z,99.90
2022-09-02T03:13:42.093Z,99.90
2022-09-02T03:16:06.994Z,99.90
2022-09-02T03:18:30.870Z,99.90
2022-09-02T03:20:56.749Z,99.90
2022-09-02T03:23:20.777Z,99.90
2022-09-02T03:25:47.757Z,99.90
2022-09-02T03:28:34.106Z,99.90
2022-09-02T03:30:59.872Z,99.90
2022-09-02T03:33:24.326Z,99.90
2022-09-02T03:35:48.556Z,99.90
2022-09-02T03:38:14.690Z,99.90
2022-09-02T03:40:41.979Z,99.90
2022-09-02T03:43:05.768Z,99.90
2022-09-02T03:45:30.884Z,99.90
2022-09-02T03:47:59.330Z,99.90
2022-09-02T03:50:31.360Z,99.90
2022-09-02T03:52:55.951Z,99.90
2022-09-02T03:55:21.415Z,99.90
2022-09-02T03:57:45.371Z,99.90
2022-09-02T04:00:13.512Z,99.90
2022-09-02T04:02:41.974Z,99.90
2022-09-02T04:05:13.711Z,99.90
2022-09-02T04:07:41.175Z,99.90
2022-09-02T04:10:09.039Z,99.90
2022-09-02T04:12:36.082Z,99.90
2022-09-02T04:15:00.002Z,99.90
2022-09-02T04:17:23.656Z,99.90
2022-09-02T04:19:47.416Z,99.90
2022-09-02T04:22:11.136Z,99.90
2022-09-02T04:24:35.381Z,99.90
2022-09-02T04:27:03.842Z,99.90
2022-09-02T04:29:32.007Z,99.90
2022-09-02T04:31:56.864Z,99.90
2022-09-02T04:34:20.977Z,99.90
2022-09-02T04:36:46.588Z,99.90
2022-09-02T04:39:10.572Z,99.90
2022-09-02T04:41:35.751Z,99.90
2022-09-02T04:44:02.827Z,99.90
2022-09-02T04:46:34.716Z,99.90
2022-09-02T04:49:01.259Z,99.90
2022-09-02T04:51:27.715Z,99.90
2022-09-02T04:53:56.031Z,99.90
2022-09-02T04:56:23.927Z,99.90
2022-09-02T04:58:50.327Z,99.90
2022-09-02T05:01:21.131Z,99.90
2022-09-02T05:03:47.913Z,99.90
2022-09-02T05:06:14.634Z,99.90
2022-09-02T05:08:38.840Z,99.90
2022-09-02T05:11:07.238Z,99.90
2022-09-02T05:13:31.616Z,99.90
2022-09-02T05:15:56.118Z,99.90
2022-09-02T05:18:20.524Z,99.90
2022-09-02T05:20:46.024Z,99.90
2022-09-02T05:23:11.399Z,99.90
2022-09-02T05:25:38.745Z,99.90
2022-09-02T05:28:02.612Z,99.90
2022-09-02T05:30:26.551Z,99.90
2022-09-02T05:32:50.354Z,99.90
2022-09-02T05:35:15.063Z,99.90
2022-09-02T05:37:41.672Z,99.90
2022-09-02T05:40:08.608Z,99.90
2022-09-02T05:42:35.610Z,99.90
2022-09-02T05:44:59.602Z,99.90
2022-09-02T05:47:25.115Z,99.90
2022-09-02T05:49:49.486Z,99.90
2022-09-02T05:52:15.066Z,99.90
2022-09-02T05:54:46.656Z,99.90
2022-09-02T05:57:19.745Z,99.90
2022-09-02T06:00:01.655Z,99.90
2022-09-02T06:02:37.378Z,99.90
2022-09-02T06:05:01.356Z,99.90
2022-09-02T06:07:26.807Z,99.90
2022-09-02T06:09:55.336Z,99.90
2022-09-02T06:12:21.891Z,99.90
2022-09-02T06:14:47.616Z,99.90
2022-09-02T06:17:12.112Z,99.90
2022-09-02T06:19:42.963Z,99.90
2022-09-02T06:22:07.828Z,99.90
2022-09-02T06:24:34.866Z,99.90
2022-09-02T06:27:07.296Z,99.90
2022-09-02T06:29:34.945Z,99.90
2022-09-02T06:31:58.888Z,99.90
2022-09-02T06:34:27.266Z,99.90
2022-09-02T06:36:52.899Z,99.90
2022-09-02T06:39:20.695Z,99.90
2022-09-02T06:41:48.102Z,99.90
2022-09-02T06:44:16.132Z,99.90
2022-09-02T06:46:44.429Z,99.90
2022-09-02T06:49:11.690Z,99.90
2022-09-02T06:51:39.997Z,99.90
2022-09-02T06:54:06.313Z,99.90
2022-09-02T06:56:32.929Z,99.90
2022-09-02T06:58:57.770Z,99.90
2022-09-02T07:01:36.977Z,99.90
2022-09-02T07:04:18.811Z,99.90
2022-09-02T07:06:46.195Z,99.90
2022-09-02T07:09:13.112Z,99.90
2022-09-02T07:11:38.123Z,99.90
2022-09-02T07:14:02.371Z,99.90
2022-09-02T07:16:27.390Z,99.90
2022-09-02T07:18:54.612Z,99.90
2022-09-02T07:21:19.115Z,99.90
2022-09-02T07:23:43.730Z,99.90
2022-09-02T07:26:13.836Z,99.90
2022-09-02T07:28:39.808Z,99.90
2022-09-02T07:31:04.161Z,99.90
2022-09-02T07:33:27.907Z,99.90
2022-09-02T07:35:53.399Z,99.90
2022-09-02T07:38:19.223Z,99.90
2022-09-02T07:40:44.342Z,99.90
2022-09-02T07:43:11.063Z,99.90
2022-09-02T07:45:37.736Z,99.90
2022-09-02T07:48:02.395Z,99.90
2022-09-02T07:50:27.899Z,99.90
2022-09-02T07:52:55.247Z,99.90
2022-09-02T07:55:18.961Z,99.90
2022-09-02T07:57:42.869Z,99.90
2022-09-02T08:00:08.763Z,99.90
2022-09-02T08:02:37.713Z,99.90
2022-09-02T08:05:02.580Z,99.90
2022-09-02T08:07:26.272Z,99.90
2022-09-02T08:09:51.665Z,99.90
2022-09-02T08:12:17.781Z,99.90
2022-09-02T08:14:44.195Z,99.90
2022-09-02T08:17:08.514Z,99.90
2022-09-02T08:19:32.187Z,99.90
2022-09-02T08:21:56.667Z,99.90
2022-09-02T08:24:20.479Z,99.90
2022-09-02T08:26:45.979Z,99.90
2022-09-02T08:29:10.661Z,99.90
2022-09-02T08:31:35.316Z,99.90
2022-09-02T08:33:58.983Z,99.90
2022-09-02T08:36:22.594Z,99.90
2022-09-02T08:38:46.256Z,99.90
2022-09-02T08:41:23.239Z,99.90
2022-09-02T08:43:50.242Z,99.90
2022-09-02T08:46:18.135Z,99.90
2022-09-02T08:48:47.688Z,99.90
2022-09-02T08:51:18.264Z,99.90
2022-09-02T08:53:52.676Z,99.90
2022-09-02T08:56:19.112Z,99.90
2022-09-02T08:58:47.105Z,99.90
2022-09-02T09:01:24.654Z,99.90
2022-09-02T09:04:09.997Z,99.90
2022-09-02T09:06:45.874Z,99.90
2022-09-02T09:09:19.361Z,99.90
2022-09-02T09:11:54.513Z,99.90
2022-09-02T09:14:28.535Z,99.90
2022-09-02T09:16:59.826Z,99.90
2022-09-02T09:19:33.851Z,99.90
2022-09-02T09:22:03.283Z,99.90
2022-09-02T09:24:33.531Z,99.90
2022-09-02T09:26:57.403Z,99.90
2022-09-02T09:29:21.035Z,99.90
2022-09-02T09:31:48.178Z,99.90
2022-09-02T09:34:14.578Z,99.90
2022-09-02T09:36:53.887Z,99.90
2022-09-02T09:39:27.512Z,99.90
2022-09-02T09:41:52.324Z,99.90
2022-09-02T09:44:38.586Z,99.90
2022-09-02T09:47:04.307Z,99.90
2022-09-02T09:49:29.427Z,99.90
2022-09-02T09:51:56.676Z,99.90
2022-09-02T09:54:20.404Z,99.90
2022-09-02T09:56:44.097Z,99.90
2022-09-02T09:59:11.008Z,99.90
2022-09-02T10:01:35.518Z,99.90
2022-09-02T10:04:02.055Z,99.90
2022-09-02T10:06:39.815Z,99.90
2022-09-02T10:09:06.009Z,99.90
2022-09-02T10:11:31.631Z,99.90
2022-09-02T10:14:01.647Z,99.90
2022-09-02T10:16:43.083Z,98.00
2022-09-02T10:19:19.690Z,98.70
2022-09-02T10:22:23.658Z,99.30
2022-09-02T10:25:20.516Z,98.20
2022-09-02T10:27:57.126Z,98.00
2022-09-02T10:30:23.051Z,97.10
2022-09-02T10:33:24.019Z,98.10
2022-09-02T10:35:50.539Z,99.40
2022-09-02T10:38:40.404Z,98.00
2022-09-02T10:41:17.973Z,96.80
2022-09-02T10:44:04.291Z,95.90
2022-09-02T10:46:35.907Z,95.90
2022-09-02T10:49:10.837Z,95.10
2022-09-02T10:51:45.151Z,96.40
2022-09-02T10:54:31.103Z,95.90
2022-09-02T10:57:03.398Z,95.80
2022-09-02T10:59:34.347Z,96.80
2022-09-02T11:02:04.292Z,98.10
2022-09-02T11:04:43.334Z,94.00
2022-09-02T11:07:10.907Z,92.80
2022-09-02T11:09:40.479Z,94.90
2022-09-02T11:12:12.230Z,95.10
2022-09-02T11:14:49.075Z,93.70
2022-09-02T11:17:21.519Z,91.40
2022-09-02T11:19:51.449Z,92.10
2022-09-02T11:22:27.687Z,91.60
2022-09-02T11:24:57.786Z,92.10
2022-09-02T11:27:42.208Z,94.20
2022-09-02T11:30:11.534Z,91.60
2022-09-02T11:32:42.600Z,94.30
2022-09-02T11:35:12.338Z,91.90
2022-09-02T11:37:41.559Z,93.10
2022-09-02T11:40:33.203Z,95.20
2022-09-02T11:43:26.951Z,90.50
2022-09-02T11:46:47.293Z,90.10
2022-09-02T11:49:48.068Z,90.50
2022-09-02T11:52:26.868Z,92.90
2022-09-02T11:55:02.642Z,90.70
2022-09-02T11:57:28.628Z,90.90
2022-09-02T12:00:29.242Z,90.80
2022-09-02T12:03:37.806Z,91.10
2022-09-02T12:06:12.289Z,91.20
2022-09-02T12:09:12.285Z,93.00
2022-09-02T12:11:45.452Z,91.40
2022-09-02T12:14:13.727Z,91.90
2022-09-02T12:16:43.076Z,91.60
2022-09-02T12:19:41.946Z,91.80
2022-09-02T12:22:38.812Z,92.90
2022-09-02T12:25:03.456Z,91.50
2022-09-02T12:27:36.755Z,92.10
2022-09-02T12:30:02.103Z,92.70
2022-09-02T12:33:05.775Z,94.30
2022-09-02T12:35:37.372Z,91.30
2022-09-02T12:38:31.691Z,92.50
2022-09-02T12:41:24.507Z,91.30
2022-09-02T12:44:25.599Z,92.70
2022-09-02T12:47:01.853Z,91.90
2022-09-02T12:49:49.672Z,92.30
2022-09-02T12:52:42.098Z,94.20
2022-09-02T12:55:11.987Z,91.80
2022-09-02T12:57:42.857Z,91.40
2022-09-02T13:00:07.859Z,91.90
2022-09-02T13:02:51.132Z,91.40
2022-09-02T13:05:28.301Z,90.50
2022-09-02T13:08:34.567Z,92.40
2022-09-02T13:11:37.636Z,91.70
2022-09-02T13:14:37.339Z,94.50
2022-09-02T13:17:36.047Z,91.50
2022-09-02T13:21:10.010Z,90.50
2022-09-02T13:24:19.324Z,91.50
2022-09-02T13:27:28.965Z,92.60
2022-09-02T13:30:15.953Z,94.70
2022-09-02T13:32:40.426Z,93.30
2022-09-02T13:35:08.207Z,94.10
2022-09-02T13:37:37.913Z,93.40
2022-09-02T13:40:07.534Z,94.60
2022-09-02T13:42:33.067Z,93.30
2022-09-02T13:45:15.527Z,92.20
2022-09-02T13:47:42.369Z,90.00
2022-09-02T13:50:08.828Z,91.90
2022-09-02T13:53:20.008Z,90.70
2022-09-02T13:55:20.658Z,91.00
2022-09-02T13:57:55.583Z,90.50
2022-09-02T14:00:31.241Z,90.70
2022-09-02T14:03:03.042Z,89.80
2022-09-02T14:05:27.975Z,90.10
2022-09-02T14:07:57.338Z,90.60
2022-09-02T14:10:24.340Z,91.40
2022-09-02T14:12:49.034Z,90.90
2022-09-02T14:15:17.093Z,89.90
2022-09-02T14:17:40.846Z,90.20
2022-09-02T14:20:19.159Z,90.40
2022-09-02T14:22:43.480Z,90.10
2022-09-02T14:25:15.453Z,89.10
2022-09-02T14:27:40.162Z,90.30
2022-09-02T14:30:09.291Z,91.20
2022-09-02T14:32:36.302Z,90.40
2022-09-02T14:35:22.684Z,90.50
2022-09-02T14:37:53.090Z,90.90
2022-09-02T14:40:19.766Z,89.70
2022-09-02T14:42:52.635Z,90.00
2022-09-02T14:45:28.986Z,90.60
2022-09-02T14:47:52.839Z,91.10
2022-09-02T14:50:27.866Z,89.60
2022-09-02T14:52:57.498Z,90.20
2022-09-02T14:55:52.741Z,91.50
2022-09-02T14:58:17.802Z,90.10
2022-09-02T15:00:41.687Z,90.50
2022-09-02T15:03:05.743Z,90.40
2022-09-02T15:05:29.431Z,91.50
2022-09-02T15:07:53.251Z,91.00
2022-09-02T15:10:17.015Z,91.50
2022-09-02T15:12:49.503Z,90.90
2022-09-02T15:15:13.217Z,90.70
2022-09-02T15:17:37.063Z,90.50
2022-09-02T15:20:00.766Z,90.50
2022-09-02T15:22:25.148Z,90.90
2022-09-02T15:24:50.630Z,89.70
2022-09-02T15:27:14.955Z,89.00
2022-09-02T15:29:42.387Z,91.00
2022-09-02T15:32:06.279Z,89.50
2022-09-02T15:34:29.937Z,89.70
2022-09-02T15:36:55.057Z,90.70
2022-09-02T15:39:19.487Z,90.50
2022-09-02T15:41:45.505Z,90.00
2022-09-02T15:44:09.382Z,90.20
2022-09-02T15:46:36.993Z,87.50
2022-09-02T15:49:04.229Z,89.50
2022-09-02T15:51:27.842Z,88.70
2022-09-02T15:53:57.054Z,88.40
2022-09-02T15:56:23.159Z,90.40
2022-09-02T15:58:47.281Z,90.30
2022-09-02T16:01:10.981Z,87.80
2022-09-02T16:03:37.083Z,89.30
2022-09-02T16:06:03.319Z,88.60
2022-09-02T16:08:26.950Z,88.00
2022-09-02T16:10:51.383Z,88.30
2022-09-02T16:13:15.096Z,89.50
2022-09-02T16:15:38.754Z,88.90
2022-09-02T16:18:02.429Z,89.20
2022-09-02T16:20:27.471Z,89.70
2022-09-02T16:22:51.136Z,89.30
2022-09-02T16:25:14.835Z,90.30
2022-09-02T16:27:53.239Z,89.80
2022-09-02T16:30:17.456Z,89.60
2022-09-02T16:32:41.159Z,90.40
2022-09-02T16:35:05.330Z,91.20
2022-09-02T16:37:30.605Z,88.00
2022-09-02T16:39:54.406Z,90.00
2022-09-02T16:42:18.111Z,89.70
2022-09-02T16:44:41.804Z,88.80
2022-09-02T16:47:05.831Z,91.00
2022-09-02T16:49:29.499Z,90.30
2022-09-02T16:51:58.218Z,90.50
2022-09-02T16:54:30.914Z,91.40
2022-09-02T16:56:56.095Z,91.00
2022-09-02T16:59:20.395Z,90.50
2022-09-02T17:01:44.129Z,91.20
2022-09-02T17:04:08.995Z,91.40
2022-09-02T17:06:33.730Z,92.70
2022-09-02T17:08:58.112Z,92.60
2022-09-02T17:11:26.594Z,93.00
2022-09-02T17:13:52.803Z,92.80
2022-09-02T17:16:17.102Z,93.90
2022-09-02T17:18:40.792Z,92.80
2022-09-02T17:21:25.923Z,93.50
2022-09-02T17:23:50.037Z,93.50
2022-09-02T17:26:14.727Z,92.20
2022-09-02T17:28:47.369Z,92.20
2022-09-02T17:31:21.119Z,92.10
2022-09-02T17:33:44.851Z,91.90
2022-09-02T17:36:09.135Z,93.30
2022-09-02T17:38:32.799Z,92.80
2022-09-02T17:41:13.791Z,93.00
2022-09-02T17:43:38.437Z,92.40
2022-09-02T17:46:08.538Z,92.40
2022-09-02T17:48:41.743Z,92.50
2022-09-02T17:51:09.190Z,92.50
2022-09-02T17:53:33.623Z,92.50
2022-09-02T17:56:06.807Z,92.40
2022-09-02T17:58:34.860Z,93.10
2022-09-02T18:01:01.404Z,92.90
2022-09-02T18:03:41.051Z,93.30
2022-09-02T18:06:12.975Z,94.20
2022-09-02T18:08:46.946Z,94.70
2022-09-02T18:11:10.696Z,95.00
2022-09-02T18:13:44.407Z,95.90
2022-09-02T18:16:32.254Z,95.90
2022-09-02T18:19:14.114Z,97.00
2022-09-02T18:21:59.078Z,95.30
2022-09-02T18:24:40.966Z,96.60
2022-09-02T18:27:12.733Z,95.60
2022-09-02T18:29:59.095Z,95.60
2022-09-02T18:32:44.418Z,96.90
2022-09-02T18:35:22.744Z,97.30
2022-09-02T18:38:02.447Z,97.30
2022-09-02T18:40:37.872Z,97.70
2022-09-02T18:43:15.713Z,98.10
2022-09-02T18:45:49.351Z,98.40
2022-09-02T18:48:17.029Z,99.00
2022-09-02T18:50:51.571Z,99.20
2022-09-02T18:53:21.597Z,99.60
2022-09-02T18:55:47.084Z,99.60
2022-09-02T18:58:19.963Z,99.90
2022-09-02T19:00:49.545Z,99.90
2022-09-02T19:03:13.239Z,99.90
2022-09-02T19:05:37.493Z,99.90
2022-09-02T19:08:23.031Z,99.90
2022-09-02T19:10:47.220Z,99.90
2022-09-02T19:13:10.960Z,99.90
2022-09-02T19:15:34.648Z,99.90
2022-09-02T19:18:00.443Z,99.90
2022-09-02T19:20:24.178Z,99.90
2022-09-02T19:22:53.953Z,99.90
2022-09-02T19:25:24.411Z,99.90
2022-09-02T19:27:52.094Z,99.90
2022-09-02T19:30:19.243Z,99.90
2022-09-02T19:32:47.910Z,99.90
2022-09-02T19:35:16.680Z,99.90
2022-09-02T19:37:44.777Z,99.90
2022-09-02T19:40:11.562Z,99.90
2022-09-02T19:42:36.653Z,99.90
2022-09-02T19:45:00.740Z,99.90
2022-09-02T19:50:08.978Z,99.90
2022-09-02T19:52:34.013Z,99.90
2022-09-02T19:54:58.633Z,99.90
2022-09-02T19:57:22.839Z,99.90
2022-09-02T19:59:47.899Z,99.90
2022-09-02T20:02:11.558Z,99.90
2022-09-02T20:04:35.351Z,99.90
2022-09-02T20:06:59.862Z,99.90
2022-09-02T20:09:24.016Z,99.90
2022-09-02T20:11:47.846Z,99.90
2022-09-02T20:14:11.502Z,99.90
2022-09-02T20:16:36.595Z,99.90
2022-09-02T20:19:00.375Z,99.90
2022-09-02T20:21:27.390Z,99.90
2022-09-02T20:23:51.132Z,99.90
2022-09-02T20:26:26.783Z,99.90
2022-09-02T20:29:08.765Z,99.90
2022-09-02T20:31:52.620Z,99.90
2022-09-02T20:34:34.263Z,99.90
2022-09-02T20:37:09.450Z,99.90
2022-09-02T20:39:51.094Z,99.90
2022-09-02T20:42:40.096Z,99.90
2022-09-02T20:45:09.903Z,99.90
2022-09-02T20:47:50.667Z,99.90
2022-09-02T20:50:30.759Z,99.90
2022-09-02T20:53:13.051Z,99.90
2022-09-02T20:55:45.643Z,99.90
2022-09-02T20:58:22.430Z,99.90
2022-09-02T21:01:04.612Z,99.90
2022-09-02T21:03:41.130Z,99.90
2022-09-02T21:06:05.919Z,99.90
2022-09-02T21:08:35.483Z,99.90
2022-09-02T21:11:02.376Z,99.90
2022-09-02T21:13:40.066Z,99.90
2022-09-02T21:16:11.285Z,99.90
2022-09-02T21:18:44.289Z,99.90
2022-09-02T21:21:24.395Z,99.90
2022-09-02T21:23:53.563Z,99.90
2022-09-02T21:26:26.097Z,99.90
2022-09-02T21:29:01.398Z,99.90
2022-09-02T21:31:37.960Z,99.90
2022-09-02T21:34:09.492Z,99.90
2022-09-02T21:36:34.719Z,99.90
2022-09-02T21:39:05.251Z,99.90
2022-09-02T21:41:33.331Z,99.90
2022-09-02T21:44:09.675Z,99.90
2022-09-02T21:46:50.239Z,99.90
2022-09-02T21:49:35.247Z,99.90
2022-09-02T21:52:10.471Z,99.90
2022-09-02T21:54:50.788Z,99.90
2022-09-02T21:57:42.489Z,99.90
2022-09-02T22:00:10.206Z,99.90
2022-09-02T22:02:57.919Z,99.90
2022-09-02T22:05:49.518Z,99.90
2022-09-02T22:08:23.791Z,99.90
2022-09-02T22:11:01.974Z,99.90
2022-09-02T22:13:25.672Z,99.90
2022-09-02T22:16:01.323Z,99.90
2022-09-02T22:18:35.817Z,99.90
2022-09-02T22:21:06.131Z,99.90
2022-09-02T22:23:31.972Z,99.90
2022-09-02T22:25:57.516Z,99.90
2022-09-02T22:28:31.542Z,99.90
2022-09-02T22:31:00.268Z,99.90
2022-09-02T22:33:30.893Z,99.90
2022-09-02T22:36:01.109Z,99.90
2022-09-02T22:38:33.330Z,99.90
2022-09-02T22:41:02.250Z,99.90
2022-09-02T22:43:41.573Z,99.90
2022-09-02T22:46:29.001Z,99.90
2022-09-02T22:49:15.462Z,99.90
2022-09-02T22:52:07.877Z,99.90
2022-09-02T22:54:32.089Z,99.90
2022-09-02T22:57:07.099Z,99.90
2022-09-02T22:59:49.124Z,99.90
2022-09-02T23:02:22.227Z,99.90
2022-09-02T23:05:04.946Z,99.90
2022-09-02T23:07:31.325Z,99.90
2022-09-02T23:09:59.211Z,99.90
2022-09-02T23:12:31.686Z,99.90
2022-09-02T23:15:18.025Z,99.90
2022-09-02T23:17:57.962Z,99.90
2022-09-02T23:20:28.536Z,99.90
2022-09-02T23:23:14.172Z,99.90
2022-09-02T23:26:09.925Z,99.90
2022-09-02T23:28:54.350Z,99.90
2022-09-02T23:31:26.030Z,99.90
2022-09-02T23:34:04.080Z,99.90
2022-09-02T23:36:41.391Z,99.90
2022-09-02T23:39:18.805Z,99.90
2022-09-02T23:41:42.923Z,99.90
2022-09-02T23:44:08.763Z,99.90
2022-09-02T23:46:48.576Z,99.90
2022-09-02T23:49:22.845Z,99.90
2022-09-02T23:51:57.294Z,99.90
2022-09-02T23:54:50.607Z,99.90
2022-09-02T23:57:34.621Z,99.90
